Time;durP1;ratioP1;P1;durP2;ratioP2;P2;SDS_P1;SDS_P2;PMS_P1;PMS_P2;Temp;Humidity;BMP_temperature;BMP_pressure;BME280_temperature;BME280_humidity;BME280_pressure;Samples;Min_cycle;Max_cycle;Signal;HPM_P1;HPM_P2
2022/02/06 00:05:30;;;;;;;4.38;0.80;;;;;;;4.34;55.95;97816.03;9987000;29;20093;-76
2022/02/06 00:10:51;;;;;;;6.45;0.90;;;;;;;4.40;55.86;97814.56;9949661;29;20080;-76
2022/02/06 00:16:12;;;;;;;3.67;0.75;;;;;;;4.43;55.83;97796.88;9961453;29;20409;-76
2022/02/06 00:21:35;;;;;;;4.60;0.93;;;;;;;4.50;55.91;97804.44;9961474;29;20053;-76
2022/02/06 00:27:07;;;;;;;5.05;0.80;;;;;;;4.48;55.25;97809.78;9973443;29;20125;-76
2022/02/06 00:32:36;;;;;;;4.30;0.90;;;;;;;4.50;55.42;97828.59;9964288;29;20069;-76
2022/02/06 00:38:07;;;;;;;3.00;0.57;;;;;;;4.53;55.33;97808.84;9962592;29;20504;-76
2022/02/06 00:43:28;;;;;;;4.47;0.70;;;;;;;4.55;55.42;97806.31;9974243;29;20050;-76
2022/02/06 00:49:01;;;;;;;3.58;0.60;;;;;;;4.52;55.29;97798.34;9960576;29;20046;-76
2022/02/06 00:54:21;;;;;;;4.28;0.80;;;;;;;4.50;55.00;97785.09;9963280;29;20061;-76
2022/02/06 00:59:43;;;;;;;2.40;0.52;;;;;;;4.52;55.01;97792.81;9959887;29;20058;-76
2022/02/06 01:05:04;;;;;;;3.65;0.90;;;;;;;4.41;55.31;97777.34;9971346;29;20069;-76
2022/02/06 01:10:27;;;;;;;3.53;0.80;;;;;;;4.39;55.50;97779.19;9972690;29;20050;-76
2022/02/06 01:15:56;;;;;;;3.92;0.60;;;;;;;4.45;55.04;97780.50;9971984;29;20047;-76
2022/02/06 01:21:29;;;;;;;3.80;0.65;;;;;;;4.50;55.19;97795.41;9973139;29;20073;-76
2022/02/06 01:26:56;;;;;;;3.08;0.70;;;;;;;4.51;55.06;97785.84;9949970;29;20091;-76
2022/02/06 01:32:21;;;;;;;2.70;0.75;;;;;;;4.54;54.81;97776.44;9960041;29;20115;-75
2022/02/06 01:37:54;;;;;;;2.60;0.80;;;;;;;4.52;54.69;97754.88;9944615;29;20434;-76
2022/02/06 01:43:18;;;;;;;6.03;0.98;;;;;;;4.50;54.78;97742.91;9960029;29;20133;-76
2022/02/06 02:42:54;;;;;;;4.90;1.55;;;;;;;4.52;55.20;97660.13;9943159;29;20519;-76
2022/02/06 02:50:44;;;;;;;2.90;0.60;;;;;;;4.50;55.63;97624.03;9971796;29;20516;-76
2022/02/06 02:56:21;;;;;;;4.07;0.88;;;;;;;4.52;55.73;97605.59;9957037;29;20054;-76
2022/02/06 03:01:59;;;;;;;3.78;0.70;;;;;;;4.54;55.42;97607.81;9971571;29;20098;-76
2022/02/06 03:07:20;;;;;;;5.43;0.90;;;;;;;4.56;55.51;97591.41;9958170;29;20067;-76
2022/02/06 03:12:47;;;;;;;3.42;0.90;;;;;;;4.52;55.61;97566.16;9956091;29;20047;-76
2022/02/06 03:18:15;;;;;;;4.45;0.70;;;;;;;4.54;55.69;97561.56;9969558;29;20058;-76
2022/02/06 03:23:39;;;;;;;4.38;0.80;;;;;;;4.53;55.75;97554.53;9969570;29;20047;-75
2022/02/06 03:29:00;;;;;;;2.27;0.67;;;;;;;4.52;55.34;97538.50;9971389;29;20046;-76
2022/02/06 03:34:20;;;;;;;4.03;0.95;;;;;;;4.51;55.65;97556.41;9974751;29;20046;-76
2022/02/06 03:39:47;;;;;;;4.70;0.85;;;;;;;4.55;55.31;97549.22;9957991;29;20430;-76
2022/02/06 03:45:11;;;;;;;2.83;0.70;;;;;;;4.57;55.66;97537.59;9958328;29;20113;-76
2022/02/06 03:50:33;;;;;;;6.30;0.82;;;;;;;4.58;55.76;97552.88;9972337;29;20046;-76
2022/02/06 03:55:54;;;;;;;3.08;0.63;;;;;;;4.60;55.69;97542.72;9972341;29;20042;-76
2022/02/06 04:01:16;;;;;;;3.08;0.65;;;;;;;4.62;55.86;97533.88;9972087;29;20054;-76
2022/02/06 04:06:38;;;;;;;4.45;0.70;;;;;;;4.63;56.14;97535.31;9972147;29;20046;-76
2022/02/06 04:12:01;;;;;;;5.53;1.00;;;;;;;4.62;56.43;97528.34;9957254;29;20042;-76
2022/02/06 04:17:29;;;;;;;5.40;1.17;;;;;;;4.63;56.05;97504.91;9959781;29;20513;-76
2022/02/06 04:22:51;;;;;;;2.50;0.80;;;;;;;4.63;56.32;97482.06;9956777;29;20512;-77
2022/02/06 04:28:12;;;;;;;4.18;0.80;;;;;;;4.62;55.96;97500.69;9958145;29;20103;-76
2022/02/06 04:33:33;;;;;;;6.95;0.98;;;;;;;4.61;55.70;97479.88;9956357;29;20050;-75
2022/02/06 05:30:55;;;;;;;3.88;0.65;;;;;;;4.47;56.05;97398.50;9971920;29;20050;-77
2022/02/06 05:36:16;;;;;;;3.73;0.70;;;;;;;4.45;56.06;97384.53;9957748;29;20056;-76
2022/02/06 05:41:41;;;;;;;3.30;0.60;;;;;;;4.40;56.63;97400.00;9959234;29;20054;-77
2022/02/06 05:47:02;;;;;;;6.15;1.10;;;;;;;4.40;56.21;97388.22;9958822;29;20080;-77
2022/02/06 05:52:23;;;;;;;3.88;0.93;;;;;;;4.36;56.85;97383.09;9983098;29;20734;-77
2022/02/06 05:57:48;;;;;;;3.30;0.65;;;;;;;4.39;56.60;97386.75;9970527;29;20481;-76
2022/02/06 06:03:09;;;;;;;5.63;0.80;;;;;;;4.38;56.80;97377.75;9956014;29;20065;-76
2022/02/06 06:08:30;;;;;;;5.93;0.70;;;;;;;4.38;56.56;97382.53;9957560;29;20054;-76
2022/02/06 06:13:51;;;;;;;4.85;0.70;;;;;;;4.32;56.85;97364.13;9969065;29;20047;-76
2022/02/06 06:19:13;;;;;;;5.53;0.80;;;;;;;4.31;56.82;97365.44;9952016;29;20086;-76
2022/02/06 06:24:40;;;;;;;4.25;0.70;;;;;;;4.30;57.58;97352.91;9956211;29;20047;-77
2022/02/06 06:30:01;;;;;;;4.18;0.60;;;;;;;4.33;57.19;97345.50;9949322;29;20062;-77
2022/02/06 06:35:23;;;;;;;3.20;0.60;;;;;;;4.35;57.37;97328.41;9953060;29;20107;-77
2022/02/06 06:40:44;;;;;;;5.85;0.80;;;;;;;4.34;57.25;97346.97;9953866;29;20073;-76
2022/02/06 06:46:05;;;;;;;3.58;0.60;;;;;;;4.33;57.66;97337.22;9971836;29;20045;-77
2022/02/06 06:51:29;;;;;;;4.28;0.75;;;;;;;4.36;57.38;97355.47;9971300;29;20091;-77
2022/02/06 06:56:57;;;;;;;3.67;0.73;;;;;;;4.38;57.32;97335.56;9957125;29;20046;-76
2022/02/06 07:07:42;;;;;;;2.35;0.80;;;;;;;4.39;57.80;97279.72;9977263;29;20057;-76
2022/02/06 07:13:03;;;;;;;4.80;0.85;;;;;;;4.47;57.42;97293.47;9976746;29;20046;-76
2022/02/06 07:18:24;;;;;;;3.15;0.60;;;;;;;4.48;57.54;97245.94;9964123;29;20405;-76
2022/02/06 07:23:45;;;;;;;2.95;0.70;;;;;;;4.45;57.58;97249.09;9964097;29;20500;-77
2022/02/06 07:29:06;;;;;;;4.72;0.68;;;;;;;4.46;57.53;97212.59;9999966;29;20043;-80
2022/02/06 07:34:27;;;;;;;2.83;0.75;;;;;;;4.50;57.83;97240.56;9971130;29;20054;-78
2022/02/06 07:39:48;;;;;;;5.43;0.80;;;;;;;4.58;57.66;97254.31;9950307;29;20057;-74
2022/02/06 07:45:11;;;;;;;5.43;1.45;;;;;;;4.59;57.37;97239.19;9970728;29;20131;-79
2022/02/06 07:50:32;;;;;;;5.72;0.93;;;;;;;4.62;57.51;97221.47;9975114;29;20054;-80
2022/02/06 07:55:53;;;;;;;5.25;1.20;;;;;;;4.69;57.51;97256.59;9975338;29;20042;-80
2022/02/06 08:01:14;;;;;;;4.30;0.73;;;;;;;4.80;57.77;97231.25;9961862;29;20059;-77
2022/02/06 08:06:34;;;;;;;4.07;1.00;;;;;;;4.80;57.23;97239.53;9950013;29;20050;-78
2022/02/06 08:11:55;;;;;;;6.13;0.90;;;;;;;4.78;57.75;97222.78;9966159;29;20125;-79
2022/02/06 08:17:16;;;;;;;2.70;0.93;;;;;;;4.81;57.92;97241.00;9987211;29;20095;-78
2022/02/06 08:22:37;;;;;;;2.30;0.60;;;;;;;4.83;57.93;97207.28;9948653;29;20051;-77
2022/02/06 08:27:58;;;;;;;3.55;0.77;;;;;;;4.93;57.61;97208.09;9948823;29;20413;-77
2022/02/06 08:33:19;;;;;;;3.28;0.75;;;;;;;5.00;57.43;97192.69;9960932;29;20050;-78
2022/02/06 08:38:40;;;;;;;8.75;1.00;;;;;;;5.08;57.00;97196.09;9973938;29;20057;-77
2022/02/06 08:44:02;;;;;;;5.00;1.00;;;;;;;5.05;57.37;97188.97;9961147;29;20157;-76
2022/02/06 08:49:25;;;;;;;5.70;0.80;;;;;;;5.05;57.20;97177.91;9961648;29;20054;-78
2022/02/06 08:55:15;;;;;;;5.78;0.90;;;;;;;5.12;57.11;97177.06;9939651;29;20097;-77
2022/02/06 09:00:44;;;;;;;4.35;0.75;;;;;;;5.22;56.85;97171.59;9925076;29;20101;-77
2022/02/06 09:06:07;;;;;;;4.07;0.90;;;;;;;5.34;56.46;97159.44;9923541;29;20371;-76
2022/02/06 09:11:29;;;;;;;4.30;0.70;;;;;;;5.42;56.24;97173.91;9935793;29;20047;-77
2022/02/06 09:16:51;;;;;;;4.05;0.70;;;;;;;5.50;55.43;97175.84;9923014;29;20058;-77
2022/02/06 09:22:13;;;;;;;3.05;0.70;;;;;;;5.59;55.75;97161.31;9922817;29;20050;-77
2022/02/06 09:27:35;;;;;;;4.20;0.60;;;;;;;5.60;55.32;97162.78;9921676;29;20058;-76
2022/02/06 09:39:33;;;;;;;5.43;0.80;;;;;;;5.57;55.26;97159.13;9934595;29;20058;-78
2022/02/06 09:44:55;;;;;;;1.45;0.52;;;;;;;5.69;54.97;97146.22;9922419;29;20494;-77
2022/02/06 09:50:16;;;;;;;4.30;0.70;;;;;;;5.75;55.03;97124.53;9921863;29;20479;-77
2022/02/06 09:55:39;;;;;;;5.00;0.75;;;;;;;5.90;54.74;97128.38;9921783;29;20042;-77
2022/02/06 10:01:34;;;;;;;2.72;0.90;;;;;;;6.12;54.33;97129.34;9933958;29;20054;-76
2022/02/06 10:07:52;;;;;;;3.90;0.70;;;;;;;6.35;54.47;97107.47;9919863;29;20054;-77
2022/02/06 10:13:44;;;;;;;2.65;0.60;;;;;;;6.73;53.58;97089.41;9941712;29;20058;-79
2022/02/06 10:19:05;;;;;;;4.22;0.90;;;;;;;7.01;53.18;97069.22;9921640;29;20051;-76
2022/02/06 10:24:30;;;;;;;5.25;0.80;;;;;;;7.36;52.64;97066.06;9921423;29;20130;-75
2022/02/06 10:29:57;;;;;;;4.35;0.80;;;;;;;7.86;51.42;97076.38;9921969;29;20188;-76
2022/02/06 10:35:18;;;;;;;6.80;0.98;;;;;;;7.82;50.86;97051.09;9920858;29;20046;-79
2022/02/06 10:40:39;;;;;;;5.15;1.15;;;;;;;8.18;50.35;97064.63;9921633;29;20054;-79
2022/02/06 10:46:06;;;;;;;7.25;0.77;;;;;;;8.58;49.22;97035.94;9945795;29;20046;-82
2022/02/06 10:51:44;;;;;;;3.95;0.80;;;;;;;9.83;48.47;97015.66;9950252;29;20130;-79
2022/02/06 10:57:10;;;;;;;5.13;0.70;;;;;;;9.84;46.16;96992.72;9907946;29;20046;-79
2022/02/06 11:02:44;;;;;;;3.97;0.65;;;;;;;9.02;46.43;97003.16;9920093;29;20054;-78
2022/02/06 11:08:05;;;;;;;3.80;0.73;;;;;;;8.48;47.50;96954.63;9919952;29;20043;-78
2022/02/06 11:13:27;;;;;;;3.38;0.80;;;;;;;8.26;47.84;96950.44;9917486;29;20046;-77
2022/02/06 11:18:56;;;;;;;6.68;0.90;;;;;;;8.02;47.84;96922.53;9918085;29;20063;-78
2022/02/06 11:24:19;;;;;;;3.58;0.85;;;;;;;8.08;48.47;96963.88;9918171;29;20055;-78
2022/02/06 11:29:40;;;;;;;6.40;1.13;;;;;;;8.16;48.17;96958.84;9925327;29;20494;-78
2022/02/06 11:35:04;;;;;;;4.30;0.60;;;;;;;7.87;48.45;96916.66;9944770;29;20402;-78
2022/02/06 11:46:18;;;;;;;3.50;0.63;;;;;;;7.59;49.57;96894.06;9961071;29;20146;-78
2022/02/06 11:52:09;;;;;;;3.95;1.00;;;;;;;7.68;49.91;96928.66;9970996;29;20046;-77
2022/02/06 11:57:29;;;;;;;4.53;1.02;;;;;;;7.94;49.44;96890.72;9971172;29;20069;-77
2022/02/06 12:02:50;;;;;;;3.75;0.88;;;;;;;8.10;49.14;96838.19;9961233;29;20073;-80
2022/02/06 12:08:13;;;;;;;2.60;0.80;;;;;;;7.93;49.40;96856.66;9965161;29;20103;-79
2022/02/06 12:13:34;;;;;;;3.75;1.00;;;;;;;7.79;49.75;96844.63;9962877;29;20046;-78
2022/02/06 12:18:55;;;;;;;2.63;0.82;;;;;;;7.67;49.96;96832.75;9974588;29;20130;-78
2022/02/06 12:24:37;;;;;;;3.58;0.60;;;;;;;7.46;50.37;96822.41;9975010;29;20046;-79
2022/02/06 12:30:06;;;;;;;5.22;0.82;;;;;;;7.51;50.33;96801.88;9975000;29;20046;-78
2022/02/06 12:40:57;;;;;;;4.63;0.90;;;;;;;7.63;50.58;96774.19;9975958;29;20057;-78
2022/02/06 12:46:21;;;;;;;7.40;0.90;;;;;;;7.69;50.34;96760.66;9975327;29;20066;-79
2022/02/06 12:51:41;;;;;;;4.00;0.70;;;;;;;7.55;50.83;96754.94;9973958;29;20046;-78
2022/02/06 12:57:02;;;;;;;2.75;0.57;;;;;;;7.50;50.55;96739.34;9962324;29;20042;-79
2022/02/06 13:02:23;;;;;;;2.58;0.50;;;;;;;7.38;50.86;96703.22;9960072;29;20490;-78
2022/02/06 13:07:45;;;;;;;1.95;0.50;;;;;;;7.24;51.12;96709.91;9954345;29;20097;-78
2022/02/06 13:13:07;;;;;;;3.00;0.80;;;;;;;7.24;51.61;96687.69;9948253;29;20049;-78
2022/02/06 13:18:55;;;;;;;3.72;0.60;;;;;;;7.13;51.75;96692.63;9960701;29;20513;-77
2022/02/06 13:24:35;;;;;;;5.03;0.60;;;;;;;7.09;52.01;96694.41;9976293;29;20124;-79
2022/02/06 13:36:01;;;;;;;5.78;1.00;;;;;;;7.14;52.34;96630.25;9985824;29;20497;-81
2022/02/06 13:41:32;;;;;;;4.75;0.60;;;;;;;7.16;52.63;96610.94;9992530;29;20050;-82
2022/02/06 13:46:56;;;;;;;2.38;1.00;;;;;;;7.14;52.76;96623.97;10002785;29;20046;-81
2022/02/06 13:52:17;;;;;;;3.75;0.70;;;;;;;7.05;52.78;96611.66;9984665;29;20042;-81
2022/02/06 13:57:39;;;;;;;3.38;0.52;;;;;;;7.07;52.98;96586.06;9972421;29;20083;-81
2022/02/06 14:03:00;;;;;;;2.08;0.68;;;;;;;7.05;52.88;96577.63;9963682;29;20046;-81
2022/02/06 14:08:22;;;;;;;2.00;0.50;;;;;;;7.01;53.10;96572.53;9954812;29;20512;-81
2022/02/06 14:13:42;;;;;;;3.65;0.80;;;;;;;6.95;52.95;96527.78;9978946;29;20065;-81
2022/02/06 14:19:10;;;;;;;3.83;0.50;;;;;;;7.06;52.98;96531.91;9969595;29;20481;-80
2022/02/06 14:24:53;;;;;;;3.55;0.70;;;;;;;7.11;53.11;96522.50;9971040;29;20271;-80
2022/02/06 14:30:15;;;;;;;2.17;0.60;;;;;;;7.11;53.06;96478.81;9971805;29;20436;-81
2022/02/06 14:35:45;;;;;;;2.90;0.75;;;;;;;7.03;53.26;96488.69;9973109;29;20129;-80
2022/02/06 14:46:40;;;;;;;2.03;0.50;;;;;;;7.07;53.13;96448.06;9958133;29;20065;-80
2022/02/06 14:52:02;;;;;;;2.38;0.60;;;;;;;6.98;53.40;96439.84;9960172;29;20047;-79
2022/02/06 14:57:23;;;;;;;2.25;0.40;;;;;;;6.93;54.16;96463.13;9957604;29;20054;-77
2022/02/06 15:02:50;;;;;;;4.03;0.70;;;;;;;6.98;54.58;96414.88;9963655;29;20039;-85
2022/02/06 15:14:30;;;;;;;2.10;0.60;;;;;;;6.74;54.90;96383.63;9920646;30;20283;-79
2022/02/06 15:19:51;;;;;;;3.00;0.68;;;;;;;6.54;55.37;96383.84;9940708;29;20058;-81
2022/02/06 15:25:12;;;;;;;2.08;0.43;;;;;;;6.38;55.93;96369.00;9923605;29;20055;-76
2022/02/06 15:30:36;;;;;;;1.92;0.52;;;;;;;6.31;56.32;96356.09;9915660;30;20043;-79
2022/02/06 15:35:57;;;;;;;3.03;0.50;;;;;;;6.21;56.81;96369.34;9926204;29;20048;-79
2022/02/06 15:41:19;;;;;;;4.70;0.45;;;;;;;6.11;56.64;96352.09;9926175;29;20054;-79
2022/02/06 15:46:40;;;;;;;2.95;0.70;;;;;;;6.07;57.33;96321.34;9926172;29;20046;-80
2022/02/06 15:52:04;;;;;;;2.75;0.50;;;;;;;5.98;57.84;96300.72;9915510;29;20487;-78
2022/02/06 15:57:31;;;;;;;1.73;0.50;;;;;;;5.91;57.83;96327.34;9925236;29;20468;-78
2022/02/06 16:02:52;;;;;;;1.77;0.57;;;;;;;5.85;58.77;96282.63;9905109;30;20031;-83
2022/02/06 16:08:13;;;;;;;1.30;0.30;;;;;;;5.75;58.98;96293.06;9890372;30;20059;-78
2022/02/06 16:13:34;;;;;;;1.88;0.50;;;;;;;5.71;58.72;96265.84;9900741;30;20086;-78
2022/02/06 16:19:01;;;;;;;1.90;0.30;;;;;;;5.70;59.50;96261.66;9900183;30;20403;-76
2022/02/06 16:24:24;;;;;;;1.45;0.30;;;;;;;5.66;60.23;96235.75;9915369;30;20043;-83
2022/02/06 16:29:45;;;;;;;1.90;0.38;;;;;;;5.67;60.39;96173.50;9941351;30;20058;-83
2022/02/06 16:35:06;;;;;;;1.85;0.38;;;;;;;5.65;60.39;96210.09;9935809;29;20043;-82
2022/02/06 16:40:28;;;;;;;2.13;0.82;;;;;;;5.68;60.78;96233.09;9924288;29;20081;-82
2022/02/06 16:45:49;;;;;;;2.72;0.50;;;;;;;5.65;61.53;96184.47;9940410;30;20142;-82
2022/02/06 16:51:15;;;;;;;1.25;0.52;;;;;;;5.60;61.72;96158.59;9939869;29;20054;-85
2022/02/06 16:56:51;;;;;;;2.25;0.45;;;;;;;5.63;62.03;96184.34;10275068;24;20513;-81
2022/02/06 17:02:12;;;;;;;2.17;0.40;;;;;;;5.62;62.34;96150.41;10015687;29;20049;-83
2022/02/06 17:07:35;;;;;;;2.25;0.40;;;;;;;5.58;62.46;96121.75;10044844;29;20046;-79
2022/02/06 17:13:02;;;;;;;1.67;0.40;;;;;;;5.52;63.01;96144.25;10068212;24;20073;-78
2022/02/06 17:18:23;;;;;;;2.07;0.40;;;;;;;5.47;63.00;96137.03;9997717;29;20057;-80
2022/02/06 17:23:44;;;;;;;1.40;0.40;;;;;;;5.41;63.30;96133.91;9997974;29;20064;-80
2022/02/06 17:29:05;;;;;;;2.22;0.57;;;;;;;5.35;63.78;96128.69;9985147;29;20053;-81
2022/02/06 17:34:28;;;;;;;3.10;0.50;;;;;;;5.41;63.84;96129.09;9972635;29;20049;-77
2022/02/06 17:39:52;;;;;;;2.50;0.50;;;;;;;5.47;63.52;96125.94;9984187;29;20046;-77
2022/02/06 17:45:14;;;;;;;2.00;0.38;;;;;;;5.55;63.71;96125.72;9984089;29;20102;-78
2022/02/06 17:50:35;;;;;;;4.30;0.30;;;;;;;5.61;63.46;96095.66;9983341;29;20046;-78
2022/02/06 17:55:56;;;;;;;1.02;0.35;;;;;;;5.60;63.75;96088.69;9996245;29;20050;-76
2022/02/06 18:01:18;;;;;;;0.80;0.30;;;;;;;5.62;63.41;96119.25;10008609;29;20049;-77
2022/02/06 18:06:42;;;;;;;1.08;0.40;;;;;;;5.64;63.63;96094.44;10008811;29;20124;-79
2022/02/06 18:12:05;;;;;;;1.85;0.50;;;;;;;5.65;63.81;96082.75;10008705;29;20145;-79
2022/02/06 18:17:27;;;;;;;0.68;0.20;;;;;;;5.68;63.55;96075.28;9970677;29;20060;-79
2022/02/06 18:22:51;;;;;;;1.25;0.30;;;;;;;5.70;63.21;96094.81;9995539;29;20424;-79
2022/02/06 18:28:12;;;;;;;1.15;0.28;;;;;;;5.71;63.64;96101.78;9986097;29;20050;-82
2022/02/06 18:33:33;;;;;;;0.50;0.20;;;;;;;5.72;63.84;96114.31;10011913;29;20046;-83
2022/02/06 18:38:54;;;;;;;0.88;0.20;;;;;;;5.72;63.75;96106.00;9986085;29;20488;-79
2022/02/06 18:44:15;;;;;;;0.50;0.25;;;;;;;5.63;63.72;96117.91;9981961;29;20393;-78
2022/02/06 18:49:38;;;;;;;0.65;0.20;;;;;;;5.54;63.96;96125.00;9982780;29;20057;-78
2022/02/06 18:55:00;;;;;;;0.60;0.10;;;;;;;5.45;64.54;96121.00;9982249;29;20056;-79
2022/02/06 19:00:21;;;;;;;0.63;0.20;;;;;;;5.44;64.58;96127.88;9987650;29;20050;-79
2022/02/06 19:05:49;;;;;;;0.38;0.20;;;;;;;5.42;64.72;96130.53;9990966;29;20046;-78
2022/02/06 19:11:41;;;;;;;0.70;0.30;;;;;;;5.39;65.31;96120.63;10000396;29;20066;-80
2022/02/06 19:17:31;;;;;;;0.68;0.30;;;;;;;5.47;65.03;96112.84;10001299;29;20058;-79
2022/02/06 19:23:23;;;;;;;0.40;0.20;;;;;;;5.52;64.92;96127.66;9990683;29;20132;-79
2022/02/06 19:29:45;;;;;;;0.28;0.10;;;;;;;5.49;65.12;96122.56;9999815;29;20141;-79
2022/02/06 19:35:50;;;;;;;0.43;0.20;;;;;;;5.47;65.33;96104.53;10014601;29;20396;-79
2022/02/06 19:41:42;;;;;;;0.85;0.10;;;;;;;5.40;65.69;96118.59;10008923;29;20058;-79
2022/02/06 19:47:08;;;;;;;0.25;0.10;;;;;;;5.42;65.78;96113.19;9989126;29;20473;-82
2022/02/06 19:53:01;;;;;;;0.43;0.10;;;;;;;5.47;65.53;96101.03;9988931;29;20041;-79
2022/02/06 20:05:50;;;;;;;0.63;0.10;;;;;;;5.32;66.25;96096.72;10027383;29;20050;-78
2022/02/06 20:11:48;;;;;;;0.25;0.15;;;;;;;5.36;66.49;96099.72;10008009;29;20179;-79
2022/02/06 20:17:43;;;;;;;0.50;0.20;;;;;;;5.41;66.60;96101.41;9988452;29;20053;-78
2022/02/06 20:24:06;;;;;;;0.30;0.20;;;;;;;5.41;66.80;96073.75;10016148;29;20054;-79
2022/02/06 20:30:06;;;;;;;0.57;0.30;;;;;;;5.37;67.28;96083.81;10008127;29;20465;-79
2022/02/06 20:35:58;;;;;;;0.73;0.20;;;;;;;5.33;67.16;96061.47;10027316;29;20054;-79
2022/02/06 20:42:27;;;;;;;1.08;0.20;;;;;;;5.32;67.31;96093.22;9989010;29;20492;-79
2022/02/06 20:47:48;;;;;;;0.40;0.20;;;;;;;5.28;67.61;96054.94;10012505;29;20046;-79
2022/02/06 21:01:05;;;;;;;0.20;0.10;;;;;;;5.30;67.94;96057.81;10016464;29;20502;-77
2022/02/06 21:06:32;;;;;;;0.70;0.20;;;;;;;5.33;68.03;96045.59;9987556;29;20167;-77
2022/02/06 21:11:52;;;;;;;0.40;0.10;;;;;;;5.36;67.84;96044.38;9997425;29;20390;-77
2022/02/06 21:17:14;;;;;;;0.77;0.20;;;;;;;5.36;68.06;96049.91;9982730;29;20080;-77
2022/02/06 21:22:35;;;;;;;0.30;0.10;;;;;;;5.35;68.30;96042.94;9996000;29;20061;-77
2022/02/06 21:27:56;;;;;;;0.38;0.10;;;;;;;5.38;68.36;96055.56;9984032;29;20049;-78
2022/02/06 21:33:55;;;;;;;0.82;0.30;;;;;;;5.42;68.22;96044.03;9993885;29;20133;-77
2022/02/06 21:39:27;;;;;;;0.30;0.17;;;;;;;5.40;68.11;96024.50;9976509;29;20057;-77
2022/02/06 21:45:12;;;;;;;0.50;0.10;;;;;;;5.37;68.04;96034.03;9988147;29;20064;-78
2022/02/06 21:50:35;;;;;;;0.20;0.10;;;;;;;5.36;68.46;96043.66;9984169;29;20054;-77
2022/02/06 21:55:56;;;;;;;0.30;0.10;;;;;;;5.38;68.45;96018.88;9995967;29;20054;-77
2022/02/06 22:31:50;;;;;;;0.30;0.10;;;;;;;5.09;68.54;95956.31;9974105;29;20478;-77
2022/02/06 22:37:13;;;;;;;0.77;0.10;;;;;;;5.06;68.66;95948.50;9947210;29;20046;-77
2022/02/06 22:42:42;;;;;;;0.40;0.10;;;;;;;5.08;68.35;95949.34;9945119;29;20061;-77
2022/02/06 22:48:35;;;;;;;0.40;0.10;;;;;;;5.09;68.06;95930.69;9957616;29;20050;-77
2022/02/06 22:54:25;;;;;;;0.55;0.10;;;;;;;5.03;67.72;95949.72;9956696;29;20050;-77
2022/02/06 23:08:11;;;;;;;0.52;0.10;;;;;;;4.93;67.47;95935.28;9983903;29;20070;-77
2022/02/06 23:14:01;;;;;;;0.10;0.00;;;;;;;4.96;67.59;95920.25;9962615;29;20066;-77
2022/02/06 23:19:50;;;;;;;0.50;0.10;;;;;;;4.91;67.20;95935.16;9935795;29;20141;-77
2022/02/06 23:25:11;;;;;;;0.70;0.20;;;;;;;4.81;67.22;95938.75;9933429;29;20104;-77
2022/02/06 23:30:34;;;;;;;0.88;0.10;;;;;;;4.74;67.49;95941.75;9932221;29;20051;-77
2022/02/06 23:43:50;;;;;;;0.85;0.10;;;;;;;4.66;67.68;95903.28;9973797;29;20115;-77
2022/02/06 23:49:12;;;;;;;0.65;0.10;;;;;;;4.68;67.47;95897.88;9965024;29;20449;-77
2022/02/06 23:54:58;;;;;;;0.50;0.10;;;;;;;4.72;67.06;95897.41;9963086;29;20451;-77
